Wind From: 11-12-2017 12:03 Until: 12-12-2017 06:00 warning for: Wind Level: Orange info button

Power and phone distribution networks may be disrupted for relatively long periods., Roofs and chimneys can be damaged. , Tree branches may break. , Vehicles can be deported. , Traffic may be disrupted, particularly on secondary roads in forest areas. Limit your trips. , Limit your speed in highway driving, especially if you drive a vehicle or hitch sensitive to wind. , Do not go for walks in forests or along the coast., In town, be vigilant against possible falling objects., Do not work on roofs and do not touch any electrical line fallen on the ground., Store or secure sensitive objects to wind or likely to be damaged., Always install power generators outside buildings. 


Meteo18 Weather Cam more information Meteo18 Weather Cam


Thunder radar more information blitzortung!


Rain radar more information rain snow radar


Visit our other weather sites:

Template documentation
and downloads

And another site



Weather Underground History page Text

Daily Summary for February 16, 2016 Units:  Metric    English   Both
« Previous Day
Next Day »
Daily Weekly Monthly Yearly Custom
  High: Low: Average:
Temperature: 4.4 °C -1.4 °C 1.1 °C
Dew Point: 1.1 °C -2.4 °C -1.1 °C
Humidity: 93 % 74 % 85 %
Wind Speed: 22.5 km/h 0.0 km/h 6 km/h
Wind Gust: 25.7 km/h - -
Wind:- - ENE
Pressure: 1032.1 hPa 1027.7 hPa -
Precipitation: 0.0 mm    
Historical Graphs
 
 
Tabular Data for February 16, 2016
Time Temperature Dew Point Pressure Wind Wind Speed Wind Gust Humidity Rainfall Rate (Hourly)
00:02 1.4 °C -1.0 °C 1027.7 hPa East 8.0 km/h 17.7 km/h 84 % 0.0 mm
00:12 1.4 °C -1.0 °C 1028.0 hPa NNE 8.0 km/h 19.3 km/h 84 % 0.0 mm
00:17 1.3 °C -1.1 °C 1028.0 hPa ESE 6.4 km/h 19.3 km/h 84 % 0.0 mm
00:22 1.3 °C -1.1 °C 1028.3 hPa ENE 4.8 km/h 19.3 km/h 84 % 0.0 mm
00:27 1.2 °C -1.0 °C 1028.3 hPa NE 11.3 km/h 19.3 km/h 85 % 0.0 mm
00:32 1.1 °C -1.1 °C 1028.3 hPa ENE 8.0 km/h 19.3 km/h 85 % 0.0 mm
00:37 1.1 °C -1.1 °C 1028.3 hPa ENE 14.5 km/h 17.7 km/h 85 % 0.0 mm
00:42 1.1 °C -1.0 °C 1028.3 hPa ENE 6.4 km/h 17.7 km/h 86 % 0.0 mm
00:47 1.1 °C -1.0 °C 1028.3 hPa ENE 11.3 km/h 20.9 km/h 86 % 0.0 mm
00:52 1.0 °C -1.1 °C 1028.3 hPa NE 11.3 km/h 20.9 km/h 86 % 0.0 mm
00:57 0.9 °C -1.2 °C 1028.7 hPa ENE 6.4 km/h 20.9 km/h 86 % 0.0 mm
01:02 0.8 °C -1.1 °C 1028.7 hPa East 6.4 km/h 19.3 km/h 87 % 0.0 mm
01:07 0.7 °C -1.2 °C 1028.7 hPa ESE 8.0 km/h 17.7 km/h 87 % 0.0 mm
01:12 0.7 °C -1.2 °C 1028.7 hPa NE 16.1 km/h 17.7 km/h 87 % 0.0 mm
01:17 0.7 °C -1.2 °C 1028.7 hPa NE 11.3 km/h 17.7 km/h 87 % 0.0 mm
01:27 0.7 °C -1.1 °C 1029.0 hPa ENE 3.2 km/h 17.7 km/h 88 % 0.0 mm
01:32 0.7 °C -1.1 °C 1029.0 hPa ENE 8.0 km/h 17.7 km/h 88 % 0.0 mm
01:37 0.7 °C -1.1 °C 1029.0 hPa SE 4.8 km/h 17.7 km/h 88 % 0.0 mm
01:42 0.7 °C -1.1 °C 1029.0 hPa SE 8.0 km/h 20.9 km/h 88 % 0.0 mm
01:52 0.6 °C -1.2 °C 1029.0 hPa NE 17.7 km/h 20.9 km/h 88 % 0.0 mm
01:57 0.5 °C -1.1 °C 1029.0 hPa NE 16.1 km/h 17.7 km/h 89 % 0.0 mm
02:02 0.4 °C -1.2 °C 1029.3 hPa East 6.4 km/h 17.7 km/h 89 % 0.0 mm
02:07 0.4 °C -1.2 °C 1029.3 hPa ENE 9.7 km/h 17.7 km/h 89 % 0.0 mm
02:12 0.4 °C -1.2 °C 1029.0 hPa NE 4.8 km/h 19.3 km/h 89 % 0.0 mm
02:17 0.4 °C -1.2 °C 1029.3 hPa SE 3.2 km/h 19.3 km/h 89 % 0.0 mm
02:27 0.2 °C -1.2 °C 1029.3 hPa NE 12.9 km/h 17.7 km/h 90 % 0.0 mm
02:32 0.2 °C -1.2 °C 1029.3 hPa East 11.3 km/h 19.3 km/h 90 % 0.0 mm
02:37 0.1 °C -1.3 °C 1029.3 hPa NE 4.8 km/h 19.3 km/h 90 % 0.0 mm
02:42 0.1 °C -1.3 °C 1029.3 hPa ESE 3.2 km/h 19.3 km/h 90 % 0.0 mm
02:47 0.1 °C -1.3 °C 1029.3 hPa ENE 3.2 km/h 16.1 km/h 90 % 0.0 mm
02:57 0.1 °C -1.3 °C 1029.3 hPa NE 12.9 km/h 17.7 km/h 90 % 0.0 mm
03:02 0.1 °C -1.3 °C 1029.3 hPa ENE 9.7 km/h 17.7 km/h 90 % 0.0 mm
03:07 0.0 °C -1.4 °C 1029.3 hPa NE 4.8 km/h 17.7 km/h 90 % 0.0 mm
03:12 0.0 °C -1.4 °C 1029.3 hPa East 6.4 km/h 16.1 km/h 90 % 0.0 mm
03:17 -0.1 °C -1.5 °C 1029.3 hPa NE 14.5 km/h 16.1 km/h 90 % 0.0 mm
03:22 -0.1 °C -1.5 °C 1029.7 hPa East 4.8 km/h 14.5 km/h 90 % 0.0 mm
03:27 -0.1 °C -1.5 °C 1029.7 hPa ENE 6.4 km/h 17.7 km/h 90 % 0.0 mm
03:32 -0.1 °C -1.5 °C 1029.3 hPa ENE 1.6 km/h 17.7 km/h 90 % 0.0 mm
03:42 -0.2 °C -1.6 °C 1029.3 hPa ESE 4.8 km/h 17.7 km/h 90 % 0.0 mm
03:47 -0.2 °C -1.5 °C 1029.3 hPa NE 9.7 km/h 16.1 km/h 91 % 0.0 mm
03:52 -0.2 °C -1.6 °C 1029.3 hPa East 1.6 km/h 19.3 km/h 90 % 0.0 mm
03:57 -0.2 °C -1.5 °C 1029.3 hPa NE 8.0 km/h 19.3 km/h 91 % 0.0 mm
04:02 -0.3 °C -1.6 °C 1029.3 hPa East 1.6 km/h 16.1 km/h 91 % 0.0 mm
04:07 -0.4 °C -1.5 °C 1029.3 hPa ENE 8.0 km/h 14.5 km/h 92 % 0.0 mm
04:12 -0.4 °C -1.5 °C 1029.7 hPa NE 11.3 km/h 14.5 km/h 92 % 0.0 mm
04:17 -0.4 °C -1.5 °C 1029.7 hPa NE 9.7 km/h 16.1 km/h 92 % 0.0 mm
04:22 -0.4 °C -1.5 °C 1029.7 hPa East 4.8 km/h 16.1 km/h 92 % 0.0 mm
04:27 -0.4 °C -1.5 °C 1029.7 hPa NNE 12.9 km/h 17.7 km/h 92 % 0.0 mm
04:32 -0.4 °C -1.5 °C 1029.7 hPa ENE 3.2 km/h 19.3 km/h 92 % 0.0 mm
04:37 -0.5 °C -1.6 °C 1029.7 hPa NNE 9.7 km/h 19.3 km/h 92 % 0.0 mm
04:47 -0.4 °C -1.5 °C 1029.7 hPa NE 6.4 km/h 17.7 km/h 92 % 0.0 mm
04:52 -0.5 °C -1.6 °C 1029.7 hPa ESE 9.7 km/h 17.7 km/h 92 % 0.0 mm
04:57 -0.5 °C -1.6 °C 1029.7 hPa East 8.0 km/h 17.7 km/h 92 % 0.0 mm
05:02 -0.6 °C -1.7 °C 1029.7 hPa East 3.2 km/h 19.3 km/h 92 % 0.0 mm
05:07 -0.6 °C -1.7 °C 1029.7 hPa East 6.4 km/h 19.3 km/h 92 % 0.0 mm
05:12 -0.7 °C -1.8 °C 1029.7 hPa ENE 6.4 km/h 19.3 km/h 92 % 0.0 mm
05:17 -0.7 °C -1.8 °C 1029.7 hPa NE 8.0 km/h 14.5 km/h 92 % 0.0 mm
05:22 -0.7 °C -1.8 °C 1029.7 hPa ENE 8.0 km/h 14.5 km/h 92 % 0.0 mm
05:27 -0.7 °C -1.8 °C 1029.7 hPa ENE 3.2 km/h 20.9 km/h 92 % 0.0 mm
05:32 -0.7 °C -1.8 °C 1029.7 hPa ENE 3.2 km/h 20.9 km/h 92 % 0.0 mm
05:37 -0.8 °C -1.9 °C 1029.7 hPa ENE 11.3 km/h 14.5 km/h 92 % 0.0 mm
05:42 -0.8 °C -1.9 °C 1029.7 hPa NE 4.8 km/h 14.5 km/h 92 % 0.0 mm
05:47 -0.9 °C -1.9 °C 1030.0 hPa NE 9.7 km/h 16.1 km/h 93 % 0.0 mm
05:52 -1.0 °C -2.0 °C 1030.0 hPa NNE 4.8 km/h 16.1 km/h 93 % 0.0 mm
05:57 -1.0 °C -2.0 °C 1030.0 hPa SE 4.8 km/h 16.1 km/h 93 % 0.0 mm
06:02 -1.1 °C -2.1 °C 1030.0 hPa NE 8.0 km/h 16.1 km/h 93 % 0.0 mm
06:07 -1.1 °C -2.1 °C 1030.4 hPa SSE 4.8 km/h 16.1 km/h 93 % 0.0 mm
06:12 -1.2 °C -2.2 °C 1030.4 hPa NNE 3.2 km/h 16.1 km/h 93 % 0.0 mm
06:17 -1.2 °C -2.2 °C 1030.0 hPa ENE 3.2 km/h 16.1 km/h 93 % 0.0 mm
06:22 -1.2 °C -2.2 °C 1030.0 hPa NNE 9.7 km/h 16.1 km/h 93 % 0.0 mm
06:27 -1.2 °C -2.2 °C 1030.0 hPa NE 6.4 km/h 14.5 km/h 93 % 0.0 mm
06:32 -1.2 °C -2.2 °C 1030.4 hPa ENE 8.0 km/h 14.5 km/h 93 % 0.0 mm
06:42 -1.3 °C -2.3 °C 1030.4 hPa NE 6.4 km/h 16.1 km/h 93 % 0.0 mm
06:52 -1.3 °C -2.3 °C 1030.4 hPa ENE 11.3 km/h 17.7 km/h 93 % 0.0 mm
06:57 -1.3 °C -2.3 °C 1030.4 hPa ENE 8.0 km/h 14.5 km/h 93 % 0.0 mm
07:02 -1.3 °C -2.3 °C 1030.4 hPa ENE 9.7 km/h 14.5 km/h 93 % 0.0 mm
07:07 -1.3 °C -2.3 °C 1030.4 hPa East 4.8 km/h 12.9 km/h 93 % 0.0 mm
07:12 -1.4 °C -2.4 °C 1030.4 hPa East 3.2 km/h 12.9 km/h 93 % 0.0 mm
07:17 -1.4 °C -2.4 °C 1030.4 hPa NE 11.3 km/h 12.9 km/h 93 % 0.0 mm
07:22 -1.4 °C -2.4 °C 1030.4 hPa East 8.0 km/h 16.1 km/h 93 % 0.0 mm
07:27 -1.4 °C -2.4 °C 1030.7 hPa ENE 11.3 km/h 16.1 km/h 93 % 0.0 mm
07:32 -1.4 °C -2.4 °C 1030.7 hPa ENE 6.4 km/h 16.1 km/h 93 % 0.0 mm
07:37 -1.4 °C -2.4 °C 1030.7 hPa East 4.8 km/h 16.1 km/h 93 % 0.0 mm
07:42 -1.4 °C -2.4 °C 1030.7 hPa East 8.0 km/h 16.1 km/h 93 % 0.0 mm
07:47 -1.4 °C -2.4 °C 1030.7 hPa NE 11.3 km/h 17.7 km/h 93 % 0.0 mm
07:52 -1.3 °C -2.3 °C 1031.0 hPa ENE 4.8 km/h 17.7 km/h 93 % 0.0 mm
07:57 -1.3 °C -2.4 °C 1030.7 hPa NE 9.7 km/h 16.1 km/h 92 % 0.0 mm
08:02 -1.3 °C -2.4 °C 1031.0 hPa NE 8.0 km/h 17.7 km/h 92 % 0.0 mm
08:12 -1.3 °C -2.4 °C 1031.0 hPa ENE 9.7 km/h 17.7 km/h 92 % 0.0 mm
08:17 -1.3 °C -2.4 °C 1031.0 hPa East 8.0 km/h 19.3 km/h 92 % 0.0 mm
08:22 -1.2 °C -2.3 °C 1031.0 hPa NE 11.3 km/h 19.3 km/h 92 % 0.0 mm
08:27 -1.2 °C -2.3 °C 1031.0 hPa ENE 8.0 km/h 19.3 km/h 92 % 0.0 mm
08:32 -1.2 °C -2.3 °C 1031.0 hPa ENE 9.7 km/h 19.3 km/h 92 % 0.0 mm
08:37 -1.2 °C -2.3 °C 1031.4 hPa NE 8.0 km/h 16.1 km/h 92 % 0.0 mm
08:42 -1.2 °C -2.3 °C 1031.4 hPa ENE 4.8 km/h 16.1 km/h 92 % 0.0 mm
08:52 -1.1 °C -2.4 °C 1031.4 hPa East 8.0 km/h 19.3 km/h 91 % 0.0 mm
08:57 -1.0 °C -2.3 °C 1031.4 hPa ESE 9.7 km/h 19.3 km/h 91 % 0.0 mm
09:02 -1.1 °C -2.2 °C 1031.7 hPa SE 3.2 km/h 19.3 km/h 92 % 0.0 mm
09:12 -0.9 °C -2.0 °C 1031.7 hPa ENE 8.0 km/h 14.5 km/h 92 % 0.0 mm
09:17 -0.9 °C -2.0 °C 1031.7 hPa ENE 8.0 km/h 14.5 km/h 92 % 0.0 mm
09:22 -0.8 °C -1.9 °C 1031.7 hPa NNE 11.3 km/h 19.3 km/h 92 % 0.0 mm
09:27 -0.8 °C -1.9 °C 1031.7 hPa ESE 6.4 km/h 19.3 km/h 92 % 0.0 mm
09:37 -0.8 °C -2.1 °C 1032.1 hPa NNW 6.4 km/h 17.7 km/h 91 % 0.0 mm
09:42 -0.8 °C -2.1 °C 1032.1 hPa ENE 8.0 km/h 20.9 km/h 91 % 0.0 mm
09:47 -0.7 °C -2.0 °C 1032.1 hPa ESE 3.2 km/h 22.5 km/h 91 % 0.0 mm
09:52 -0.7 °C -2.0 °C 1032.1 hPa East 9.7 km/h 22.5 km/h 91 % 0.0 mm
09:57 -0.6 °C -1.7 °C 1032.1 hPa NE 16.1 km/h 22.5 km/h 92 % 0.0 mm
10:02 -0.6 °C -1.9 °C 1032.1 hPa ESE 6.4 km/h 19.3 km/h 91 % 0.0 mm
10:07 -0.6 °C -1.9 °C 1032.1 hPa NE 12.9 km/h 17.7 km/h 91 % 0.0 mm
10:12 -0.5 °C -1.8 °C 1032.1 hPa SSE 9.7 km/h 19.3 km/h 91 % 0.0 mm
10:17 -0.4 °C -1.7 °C 1032.1 hPa ENE 8.0 km/h 22.5 km/h 91 % 0.0 mm
10:22 -0.4 °C -1.7 °C 1032.1 hPa NE 6.4 km/h 22.5 km/h 91 % 0.0 mm
10:32 -0.2 °C -1.6 °C 1032.1 hPa ESE 8.0 km/h 17.7 km/h 90 % 0.0 mm
10:37 0.1 °C -1.3 °C 1032.1 hPa SE 4.8 km/h 17.7 km/h 90 % 0.0 mm
10:42 0.6 °C -1.0 °C 1031.7 hPa ENE 6.4 km/h 16.1 km/h 89 % 0.0 mm
10:47 0.7 °C -1.2 °C 1031.7 hPa ENE 3.2 km/h 20.9 km/h 87 % 0.0 mm
10:52 0.7 °C -1.2 °C 1031.7 hPa NE 4.8 km/h 20.9 km/h 87 % 0.0 mm
10:57 0.7 °C -1.4 °C 1031.7 hPa ENE 4.8 km/h 20.9 km/h 86 % 0.0 mm
11:02 0.9 °C -1.2 °C 1031.7 hPa South 4.8 km/h 19.3 km/h 86 % 0.0 mm
11:12 1.0 °C -1.1 °C 1031.7 hPa North 4.8 km/h 16.1 km/h 86 % 0.0 mm
11:17 1.2 °C -0.9 °C 1031.7 hPa NE 4.8 km/h 16.1 km/h 86 % 0.0 mm
11:22 1.1 °C -1.1 °C 1031.7 hPa East 8.0 km/h 17.7 km/h 85 % 0.0 mm
11:27 1.0 °C -1.1 °C 1031.7 hPa SE 4.8 km/h 19.3 km/h 86 % 0.0 mm
11:32 1.2 °C -1.0 °C 1031.7 hPa SE 1.6 km/h 19.3 km/h 85 % 0.0 mm
11:37 1.4 °C -0.8 °C 1031.7 hPa ENE 4.8 km/h 19.3 km/h 85 % 0.0 mm
11:42 1.6 °C -0.6 °C 1031.7 hPa East 11.3 km/h 19.3 km/h 85 % 0.0 mm
11:52 2.1 °C -0.2 °C 1031.7 hPa ESE 1.6 km/h 22.5 km/h 85 % 0.0 mm
11:57 2.4 °C -0.2 °C 1031.7 hPa NNE 14.5 km/h 19.3 km/h 83 % 0.0 mm
12:02 2.5 °C -0.3 °C 1031.7 hPa NNE 6.4 km/h 19.3 km/h 82 % 0.0 mm
12:07 2.4 °C -0.4 °C 1031.7 hPa NE 22.5 km/h 22.5 km/h 82 % 0.0 mm
12:12 2.5 °C -0.3 °C 1031.7 hPa NE 4.8 km/h 24.1 km/h 82 % 0.0 mm
12:17 2.4 °C -0.4 °C 1031.7 hPa ENE 4.8 km/h 24.1 km/h 82 % 0.0 mm
12:27 3.0 °C 0.4 °C 1031.7 hPa ESE 3.2 km/h 20.9 km/h 83 % 0.0 mm
12:32 3.0 °C -0.3 °C 1031.4 hPa NNE 8.0 km/h 20.9 km/h 79 % 0.0 mm
12:42 3.2 °C 0.3 °C 1031.4 hPa NNE 11.3 km/h 19.3 km/h 81 % 0.0 mm
12:47 3.1 °C -0.2 °C 1031.4 hPa NNE 9.7 km/h 19.3 km/h 79 % 0.0 mm
12:52 3.1 °C 0.0 °C 1031.4 hPa NE 1.6 km/h 17.7 km/h 80 % 0.0 mm
12:57 3.4 °C 0.3 °C 1031.0 hPa SE 4.8 km/h 17.7 km/h 80 % 0.0 mm
13:02 3.5 °C 0.2 °C 1031.0 hPa SSE 6.4 km/h 19.3 km/h 79 % 0.0 mm
13:12 3.4 °C 0.1 °C 1031.0 hPa NNE 9.7 km/h 19.3 km/h 79 % 0.0 mm
13:17 3.5 °C 0.5 °C 1031.0 hPa ENE 12.9 km/h 19.3 km/h 81 % 0.0 mm
13:22 3.4 °C 0.4 °C 1031.0 hPa NE 6.4 km/h 19.3 km/h 81 % 0.0 mm
13:27 3.4 °C 0.3 °C 1031.0 hPa ENE 8.0 km/h 17.7 km/h 80 % 0.0 mm
13:32 3.4 °C 0.3 °C 1031.0 hPa ENE 6.4 km/h 17.7 km/h 80 % 0.0 mm
13:37 3.6 °C 0.3 °C 1030.7 hPa NE 11.3 km/h 16.1 km/h 79 % 0.0 mm
13:42 3.6 °C 0.5 °C 1030.7 hPa East 6.4 km/h 16.1 km/h 80 % 0.0 mm
13:52 3.7 °C 0.6 °C 1030.7 hPa NE 8.0 km/h 19.3 km/h 80 % 0.0 mm
13:57 3.7 °C 0.4 °C 1030.7 hPa NE 12.9 km/h 19.3 km/h 79 % 0.0 mm
14:02 3.9 °C 0.4 °C 1030.7 hPa NNE 6.4 km/h 19.3 km/h 78 % 0.0 mm
14:07 3.9 °C 0.4 °C 1030.7 hPa NNE 3.2 km/h 17.7 km/h 78 % 0.0 mm
14:12 4.1 °C 0.6 °C 1030.7 hPa North 11.3 km/h 17.7 km/h 78 % 0.0 mm
14:17 4.2 °C 0.3 °C 1030.7 hPa NNE 3.2 km/h 17.7 km/h 76 % 0.0 mm
14:22 4.4 °C 1.1 °C 1030.7 hPa North 9.7 km/h 16.1 km/h 79 % 0.0 mm
14:32 3.9 °C 0.8 °C 1030.7 hPa NE 8.0 km/h 19.3 km/h 80 % 0.0 mm
14:37 3.9 °C 0.6 °C 1030.4 hPa NE 9.7 km/h 19.3 km/h 79 % 0.0 mm
14:42 4.1 °C 0.6 °C 1030.4 hPa ENE 3.2 km/h 19.3 km/h 78 % 0.0 mm
14:52 4.1 °C 0.4 °C 1030.4 hPa NE 11.3 km/h 20.9 km/h 77 % 0.0 mm
14:57 3.9 °C -0.1 °C 1030.4 hPa NE 3.2 km/h 20.9 km/h 75 % 0.0 mm
15:02 4.2 °C 0.9 °C 1030.4 hPa East 6.4 km/h 19.3 km/h 79 % 0.0 mm
15:12 4.0 °C 0.2 °C 1030.4 hPa ENE 6.4 km/h 19.3 km/h 76 % 0.0 mm
15:17 4.3 °C 0.6 °C 1030.4 hPa NE 6.4 km/h 19.3 km/h 77 % 0.0 mm
15:22 4.1 °C 0.1 °C 1030.0 hPa ESE 9.7 km/h 19.3 km/h 75 % 0.0 mm
15:27 3.9 °C 0.4 °C 1030.0 hPa ENE 3.2 km/h 17.7 km/h 78 % 0.0 mm
15:32 4.0 °C 0.3 °C 1030.0 hPa South 6.4 km/h 17.7 km/h 77 % 0.0 mm
15:37 4.1 °C 0.1 °C 1030.0 hPa NE 20.9 km/h 20.9 km/h 75 % 0.0 mm
15:42 3.7 °C 0.0 °C 1030.0 hPa NE 6.4 km/h 24.1 km/h 77 % 0.0 mm
15:47 3.9 °C 0.1 °C 1030.0 hPa SE 6.4 km/h 24.1 km/h 76 % 0.0 mm
15:52 4.0 °C 0.2 °C 1030.0 hPa North 9.7 km/h 24.1 km/h 76 % 0.0 mm
15:57 3.9 °C -0.3 °C 1030.0 hPa ENE 12.9 km/h 25.7 km/h 74 % 0.0 mm
16:02 3.9 °C 0.1 °C 1030.4 hPa SE 3.2 km/h 25.7 km/h 76 % 0.0 mm
16:07 4.1 °C 0.1 °C 1030.4 hPa NE 6.4 km/h 25.7 km/h 75 % 0.0 mm
16:12 3.8 °C 0.0 °C 1030.4 hPa ESE 4.8 km/h 20.9 km/h 76 % 0.0 mm
16:17 3.5 °C -0.3 °C 1030.4 hPa East 8.0 km/h 22.5 km/h 76 % 0.0 mm
16:22 3.8 °C 0.0 °C 1030.4 hPa ENE 4.8 km/h 22.5 km/h 76 % 0.0 mm
16:27 4.0 °C 0.2 °C 1030.4 hPa SE 14.5 km/h 22.5 km/h 76 % 0.0 mm
16:32 3.7 °C -0.3 °C 1030.4 hPa SSE 6.4 km/h 20.9 km/h 75 % 0.0 mm
16:37 3.8 °C 0.0 °C 1030.4 hPa NNE 6.4 km/h 20.9 km/h 76 % 0.0 mm
16:42 3.8 °C -0.2 °C 1030.4 hPa ENE 8.0 km/h 20.9 km/h 75 % 0.0 mm
16:52 3.6 °C -0.1 °C 1030.4 hPa NNE 12.9 km/h 19.3 km/h 77 % 0.0 mm
16:57 3.4 °C -0.2 °C 1030.4 hPa NE 8.0 km/h 19.3 km/h 77 % 0.0 mm
17:02 3.3 °C -0.3 °C 1030.4 hPa NE 8.0 km/h 16.1 km/h 77 % 0.0 mm
17:12 3.3 °C -0.2 °C 1030.4 hPa East 1.6 km/h 16.1 km/h 78 % 0.0 mm
17:17 3.3 °C -0.2 °C 1030.4 hPa ESE 6.4 km/h 16.1 km/h 78 % 0.0 mm
17:22 3.3 °C -0.2 °C 1030.4 hPa NNE 8.0 km/h 16.1 km/h 78 % 0.0 mm
17:27 3.3 °C -0.3 °C 1030.4 hPa East 1.6 km/h 12.9 km/h 77 % 0.0 mm
17:32 3.3 °C -0.3 °C 1030.4 hPa ENE 1.6 km/h 12.9 km/h 77 % 0.0 mm
17:37 3.2 °C -0.6 °C 1030.4 hPa NW 1.6 km/h 9.7 km/h 76 % 0.0 mm
17:42 2.9 °C -0.9 °C 1030.4 hPa NE 4.8 km/h 9.7 km/h 76 % 0.0 mm
17:52 2.7 °C -0.6 °C 1030.4 hPa Calm   12.9 km/h 79 % 0.0 mm
17:57 2.5 °C -0.9 °C 1030.4 hPa Calm   12.9 km/h 78 % 0.0 mm
18:02 2.3 °C -1.1 °C 1030.4 hPa NNE 3.2 km/h 11.3 km/h 78 % 0.0 mm
18:12 2.1 °C -1.2 °C 1030.4 hPa NNE 4.8 km/h 6.4 km/h 79 % 0.0 mm
18:17 1.9 °C -1.5 °C 1030.4 hPa Calm   6.4 km/h 78 % 0.0 mm
18:22 1.7 °C -1.0 °C 1030.4 hPa Calm   9.7 km/h 82 % 0.0 mm
18:27 1.5 °C -1.1 °C 1030.7 hPa Calm   9.7 km/h 83 % 0.0 mm
18:32 1.3 °C -0.9 °C 1030.7 hPa ENE 1.6 km/h 9.7 km/h 85 % 0.0 mm
18:37 1.4 °C -0.8 °C 1030.4 hPa Calm   4.8 km/h 85 % 0.0 mm
18:42 1.3 °C -1.1 °C 1030.4 hPa Calm   4.8 km/h 84 % 0.0 mm
18:52 1.3 °C -0.9 °C 1030.4 hPa Calm   3.2 km/h 85 % 0.0 mm
18:57 1.3 °C -0.9 °C 1030.4 hPa Calm   3.2 km/h 85 % 0.0 mm
19:02 1.4 °C -0.8 °C 1030.4 hPa North 3.2 km/h 8.0 km/h 85 % 0.0 mm
19:12 1.6 °C -0.8 °C 1030.4 hPa Calm   8.0 km/h 84 % 0.0 mm
19:17 1.6 °C -1.0 °C 1030.4 hPa Calm   9.7 km/h 83 % 0.0 mm
19:22 1.6 °C -1.0 °C 1030.4 hPa NE 4.8 km/h 9.7 km/h 83 % 0.0 mm
19:27 1.6 °C -1.3 °C 1030.4 hPa NE 9.7 km/h 11.3 km/h 81 % 0.0 mm
19:32 1.6 °C -1.5 °C 1030.4 hPa NNE 11.3 km/h 11.3 km/h 80 % 0.0 mm
19:37 1.6 °C -1.5 °C 1030.4 hPa NNE 3.2 km/h 12.9 km/h 80 % 0.0 mm
19:42 1.5 °C -1.4 °C 1030.4 hPa Calm   14.5 km/h 81 % 0.0 mm
19:47 1.4 °C -1.7 °C 1030.4 hPa ESE 1.6 km/h 14.5 km/h 80 % 0.0 mm
19:52 1.5 °C -1.6 °C 1030.0 hPa NNE 1.6 km/h 14.5 km/h 80 % 0.0 mm
19:57 1.6 °C -1.5 °C 1030.0 hPa Calm   12.9 km/h 80 % 0.0 mm
20:02 1.6 °C -1.5 °C 1030.0 hPa ENE 4.8 km/h 12.9 km/h 80 % 0.0 mm
20:12 1.6 °C -1.3 °C 1030.0 hPa Calm   9.7 km/h 81 % 0.0 mm
20:17 1.6 °C -1.3 °C 1030.0 hPa NNW 1.6 km/h 9.7 km/h 81 % 0.0 mm
20:22 1.6 °C -1.5 °C 1030.0 hPa Calm   8.0 km/h 80 % 0.0 mm
20:37 1.7 °C -1.4 °C 1030.0 hPa ENE 1.6 km/h 16.1 km/h 80 % 0.0 mm
20:42 1.7 °C -1.4 °C 1030.0 hPa Calm   16.1 km/h 80 % 0.0 mm
20:47 1.7 °C -1.2 °C 1030.0 hPa Calm   9.7 km/h 81 % 0.0 mm
20:52 1.7 °C -1.2 °C 1030.0 hPa NE 4.8 km/h 9.7 km/h 81 % 0.0 mm
20:57 1.8 °C -1.1 °C 1030.0 hPa NNE 3.2 km/h 9.7 km/h 81 % 0.0 mm
21:02 1.8 °C -1.1 °C 1030.0 hPa North 1.6 km/h 12.9 km/h 81 % 0.0 mm
21:17 1.8 °C -1.1 °C 1029.7 hPa NNE 1.6 km/h 11.3 km/h 81 % 0.0 mm
21:22 1.8 °C -0.9 °C 1029.7 hPa NE 1.6 km/h 11.3 km/h 82 % 0.0 mm
21:27 1.8 °C -0.9 °C 1029.7 hPa Calm   6.4 km/h 82 % 0.0 mm
21:32 1.7 °C -1.0 °C 1029.3 hPa NNE 1.6 km/h 6.4 km/h 82 % 0.0 mm
21:37 1.7 °C -1.0 °C 1029.3 hPa Calm   6.4 km/h 82 % 0.0 mm
21:42 1.7 °C -1.0 °C 1029.3 hPa Calm   6.4 km/h 82 % 0.0 mm
21:47 1.7 °C -0.9 °C 1029.3 hPa NNE 1.6 km/h 6.4 km/h 83 % 0.0 mm
21:52 1.7 °C -1.0 °C 1029.3 hPa Calm   6.4 km/h 82 % 0.0 mm
21:57 1.7 °C -1.0 °C 1029.0 hPa NNE 1.6 km/h 6.4 km/h 82 % 0.0 mm
22:02 1.8 °C -0.9 °C 1029.0 hPa NE 1.6 km/h 6.4 km/h 82 % 0.0 mm
22:07 1.8 °C -0.9 °C 1029.0 hPa Calm   6.4 km/h 82 % 0.0 mm
22:12 1.8 °C -1.1 °C 1029.0 hPa NE 3.2 km/h 8.0 km/h 81 % 0.0 mm
22:22 1.7 °C -1.2 °C 1028.7 hPa NNE 6.4 km/h 8.0 km/h 81 % 0.0 mm
22:27 1.4 °C -1.3 °C 1028.7 hPa NNE 1.6 km/h 8.0 km/h 82 % 0.0 mm
22:32 1.3 °C -1.4 °C 1028.7 hPa NNE 1.6 km/h 8.0 km/h 82 % 0.0 mm
22:37 1.2 °C -1.5 °C 1028.3 hPa Calm   11.3 km/h 82 % 0.0 mm
22:42 1.0 °C -1.6 °C 1028.3 hPa Calm   11.3 km/h 83 % 0.0 mm
22:52 0.7 °C -1.7 °C 1028.3 hPa NNE 3.2 km/h 6.4 km/h 84 % 0.0 mm
22:57 0.4 °C -2.0 °C 1028.3 hPa Calm   4.8 km/h 84 % 0.0 mm
23:02 0.2 °C -2.0 °C 1028.3 hPa NE 3.2 km/h 4.8 km/h 85 % 0.0 mm
23:07 -0.1 °C -2.2 °C 1028.3 hPa Calm   4.8 km/h 86 % 0.0 mm
23:12 -0.2 °C -2.1 °C 1028.0 hPa Calm   4.8 km/h 87 % 0.0 mm
23:17 -0.4 °C -2.3 °C 1028.0 hPa Calm   4.8 km/h 87 % 0.0 mm
23:27 -0.3 °C -2.0 °C 1028.0 hPa NE 1.6 km/h 6.4 km/h 88 % 0.0 mm
23:32 -0.2 °C -1.9 °C 1027.7 hPa Calm   6.4 km/h 88 % 0.0 mm
23:37 -0.4 °C -2.1 °C 1027.7 hPa Calm   6.4 km/h 88 % 0.0 mm
23:42 -0.4 °C -2.0 °C 1027.7 hPa Calm   3.2 km/h 89 % 0.0 mm
23:52 -0.6 °C -2.3 °C 1027.7 hPa Calm   3.2 km/h 88 % 0.0 mm
23:57 -0.8 °C -2.4 °C 1027.7 hPa Calm   1.6 km/h 89 % 0.0 mm
Meteo18
Compliments of Weather Underground - 4 mb

Script developed by  Jim McMurry - jmcmurry@mwt.net Adapted for the template by  Wim van der Kuil - Leuven-Template.eu

You find our weather info also at:

European Weather Network

Weather Underground

Equipment we use:

Weather-station
Davis Vue

Weather-program
Meteohub

Weather-server
Raspberry PI 2 B+

Provider
1 and 1

Davis Vue

Meteohub

Raspberry PI 2 B+

1 and 1